Time;durP1;ratioP1;P1;durP2;ratioP2;P2;SDS_P1;SDS_P2;PMS_P1;PMS_P2;Temp;Humidity;BMP_temperature;BMP_pressure;BME280_temperature;BME280_humidity;BME280_pressure;Samples;Min_cycle;Max_cycle;Signal;HPM_P1;HPM_P2
2022/03/08 00:01:26;;;;;;;;;;;;;;;;;;5071847;28;1894;-77
2022/03/08 00:03:52;;;;;;;;;;;;;;;;;;5087633;28;1235;-77
2022/03/08 00:06:17;;;;;;;;;;;;;;;;;;5082881;28;1201;-78
2022/03/08 00:08:42;;;;;;;;;;;;;;;;;;5071403;28;1251;-77
2022/03/08 00:11:09;;;;;;;;;;;;;;;;;;5053861;28;1284;-77
2022/03/08 00:13:34;;;;;;;;;;;;;;;;;;5077572;28;1271;-76
2022/03/08 00:15:59;;;;;;;;;;;;;;;;;;5087124;28;1261;-77
2022/03/08 00:18:24;;;;;;;;;;;;;;;;;;5072409;28;1136;-77
2022/03/08 00:20:50;;;;;;;;;;;;;;;;;;5088925;28;1961;-77
2022/03/08 00:23:16;;;;;;;;;;;;;;;;;;5069375;28;1277;-78
2022/03/08 00:25:41;;;;;;;;;;;;;;;;;;5065544;28;1237;-78
2022/03/08 00:28:06;;;;;;;;;;;;;;;;;;5092061;28;1250;-77
2022/03/08 00:30:32;;;;;;;;;;;;;;;;;;5066866;28;1096;-76
2022/03/08 00:32:57;;;;;;;;;;;;;;;;;;5069414;28;1218;-77
2022/03/08 00:35:26;;;;;;;;;;;;;;;;;;5060415;28;1220;-77
2022/03/08 00:37:53;;;;;;;;;;;;;;;;;;5080563;28;1145;-78
2022/03/08 00:40:21;;;;;;;;;;;;;;;;;;5097036;28;1902;-77
2022/03/08 00:42:47;;;;;;;;;;;;;;;;;;5080927;28;1199;-76
2022/03/08 00:45:12;;;;;;;;;;;;;;;;;;5088342;28;1186;-77
2022/03/08 00:47:39;;;;;;;;;;;;;;;;;;5051633;28;1456;-78
2022/03/08 00:50:06;;;;;;;;;;;;;;;;;;5087636;28;1267;-78
2022/03/08 00:52:31;;;;;;;;;;;;;;;;;;5077008;28;1320;-78
2022/03/08 00:54:57;;;;;;;;;;;;;;;;;;5066592;28;1284;-78
2022/03/08 00:57:22;;;;;;;;;;;;;;;;;;5058244;28;1299;-78
2022/03/08 00:59:47;;;;;;;;;;;;;;;;;;5057731;28;1898;-78
2022/03/08 01:02:13;;;;;;;;;;;;;;;;;;5066384;28;1223;-78
2022/03/08 01:04:38;;;;;;;;;;;;;;;;;;5048074;28;1277;-78
2022/03/08 01:07:05;;;;;;;;;;;;;;;;;;5084282;28;1187;-77
2022/03/08 01:09:30;;;;;;;;;;;;;;;;;;5077628;28;1627;-77
2022/03/08 01:11:56;;;;;;;;;;;;;;;;;;5080801;28;1195;-76
2022/03/08 01:14:22;;;;;;;;;;;;;;;;;;5076852;28;1247;-77
2022/03/08 01:16:47;;;;;;;;;;;;;;;;;;5055964;28;1285;-76
2022/03/08 01:19:16;;;;;;;;;;;;;;;;;;5109475;28;1926;-77
2022/03/08 01:21:42;;;;;;;;;;;;;;;;;;5091737;28;1321;-77
2022/03/08 01:24:07;;;;;;;;;;;;;;;;;;5109730;28;1135;-76
2022/03/08 01:26:33;;;;;;;;;;;;;;;;;;5086720;28;1218;-77
2022/03/08 01:28:59;;;;;;;;;;;;;;;;;;5107471;28;1176;-76
2022/03/08 01:31:24;;;;;;;;;;;;;;;;;;5085184;28;1283;-77
2022/03/08 01:33:49;;;;;;;;;;;;;;;;;;5073558;28;1258;-77
2022/03/08 01:36:16;;;;;;;;;;;;;;;;;;5090407;28;1270;-77
2022/03/08 01:38:41;;;;;;;;;;;;;;;;;;5090829;28;1226;-77
2022/03/08 01:41:07;;;;;;;;;;;;;;;;;;5106867;28;1963;-77
2022/03/08 01:43:32;;;;;;;;;;;;;;;;;;5070807;28;1361;-78
2022/03/08 01:45:57;;;;;;;;;;;;;;;;;;5071048;28;1168;-77
2022/03/08 01:48:23;;;;;;;;;;;;;;;;;;5052637;28;1267;-77
2022/03/08 01:50:48;;;;;;;;;;;;;;;;;;5071292;28;1152;-77
2022/03/08 01:53:14;;;;;;;;;;;;;;;;;;5086699;28;1321;-77
2022/03/08 01:55:39;;;;;;;;;;;;;;;;;;5066801;28;1345;-77
2022/03/08 01:58:04;;;;;;;;;;;;;;;;;;5066592;28;1143;-77
2022/03/08 02:00:31;;;;;;;;;;;;;;;;;;5072179;28;1886;-77
2022/03/08 02:02:57;;;;;;;;;;;;;;;;;;5075317;28;1305;-77
2022/03/08 02:05:23;;;;;;;;;;;;;;;;;;5087583;28;1332;-77
2022/03/08 02:07:49;;;;;;;;;;;;;;;;;;5087777;28;1234;-77
2022/03/08 02:10:14;;;;;;;;;;;;;;;;;;5069679;28;1231;-77
2022/03/08 02:12:39;;;;;;;;;;;;;;;;;;5065908;28;1184;-77
2022/03/08 02:15:20;;;;;;;;;;;;;;;;;;5073489;28;1164;-77
2022/03/08 02:17:46;;;;;;;;;;;;;;;;;;5087978;28;1164;-77
2022/03/08 02:20:12;;;;;;;;;;;;;;;;;;5088408;28;1909;-79
2022/03/08 02:22:39;;;;;;;;;;;;;;;;;;5084594;28;1215;-77
2022/03/08 02:25:05;;;;;;;;;;;;;;;;;;5090530;28;1277;-78
2022/03/08 02:27:31;;;;;;;;;;;;;;;;;;5082340;28;1172;-79
2022/03/08 02:29:57;;;;;;;;;;;;;;;;;;5088179;28;1165;-78
2022/03/08 02:32:23;;;;;;;;;;;;;;;;;;5084112;28;1177;-77
2022/03/08 02:34:48;;;;;;;;;;;;;;;;;;5073062;28;1220;-77
2022/03/08 02:37:13;;;;;;;;;;;;;;;;;;5088885;28;1147;-78
2022/03/08 02:39:39;;;;;;;;;;;;;;;;;;5075069;28;1943;-78
2022/03/08 02:42:05;;;;;;;;;;;;;;;;;;5096408;28;1180;-77
2022/03/08 02:44:30;;;;;;;;;;;;;;;;;;5098867;28;1202;-77
2022/03/08 02:46:55;;;;;;;;;;;;;;;;;;5082392;28;1285;-78
2022/03/08 02:49:24;;;;;;;;;;;;;;;;;;5072871;28;1239;-78
2022/03/08 02:51:49;;;;;;;;;;;;;;;;;;5089681;28;1425;-77
2022/03/08 02:54:15;;;;;;;;;;;;;;;;;;5055553;28;1600;-77
2022/03/08 02:56:40;;;;;;;;;;;;;;;;;;5066109;28;1349;-77
2022/03/08 02:59:06;;;;;;;;;;;;;;;;;;5097006;28;1211;-77
2022/03/08 03:01:31;;;;;;;;;;;;;;;;;;5089209;28;1899;-76
2022/03/08 03:03:56;;;;;;;;;;;;;;;;;;5090717;28;1166;-77
2022/03/08 03:06:23;;;;;;;;;;;;;;;;;;5084304;28;1327;-76
2022/03/08 03:08:48;;;;;;;;;;;;;;;;;;5083495;28;1427;-77
2022/03/08 03:11:14;;;;;;;;;;;;;;;;;;5088889;28;1108;-75
2022/03/08 03:13:39;;;;;;;;;;;;;;;;;;5087729;28;1091;-78
2022/03/08 03:16:05;;;;;;;;;;;;;;;;;;5085629;28;1132;-77
2022/03/08 03:18:30;;;;;;;;;;;;;;;;;;5086821;28;1383;-78
2022/03/08 03:20:55;;;;;;;;;;;;;;;;;;5077486;28;1986;-77
2022/03/08 03:23:26;;;;;;;;;;;;;;;;;;5078341;28;1303;-77
2022/03/08 03:25:51;;;;;;;;;;;;;;;;;;5068709;28;1052;-78
2022/03/08 03:28:16;;;;;;;;;;;;;;;;;;5075082;28;1195;-77
2022/03/08 03:30:42;;;;;;;;;;;;;;;;;;5059329;28;1247;-77
2022/03/08 03:33:07;;;;;;;;;;;;;;;;;;5080595;28;1155;-77
2022/03/08 03:35:32;;;;;;;;;;;;;;;;;;5075676;28;1210;-77
2022/03/08 03:37:57;;;;;;;;;;;;;;;;;;5103242;28;1176;-77
2022/03/08 03:40:23;;;;;;;;;;;;;;;;;;5106278;28;1894;-78
2022/03/08 03:42:49;;;;;;;;;;;;;;;;;;5067113;28;1439;-76
2022/03/08 03:45:14;;;;;;;;;;;;;;;;;;5068258;28;1115;-76
2022/03/08 03:47:40;;;;;;;;;;;;;;;;;;5084973;28;1333;-77
2022/03/08 03:50:06;;;;;;;;;;;;;;;;;;5089355;28;1156;-77
2022/03/08 03:52:31;;;;;;;;;;;;;;;;;;5097353;28;1164;-77
2022/03/08 03:54:57;;;;;;;;;;;;;;;;;;5106358;28;1317;-77
2022/03/08 03:57:22;;;;;;;;;;;;;;;;;;5066522;28;1351;-76
2022/03/08 03:59:47;;;;;;;;;;;;;;;;;;5051335;28;1890;-75
2022/03/08 04:02:14;;;;;;;;;;;;;;;;;;5071143;28;1170;-77
2022/03/08 04:04:39;;;;;;;;;;;;;;;;;;5074830;28;1282;-76
2022/03/08 04:07:04;;;;;;;;;;;;;;;;;;5087543;28;1168;-77
2022/03/08 04:09:30;;;;;;;;;;;;;;;;;;5069074;28;1361;-77
2022/03/08 04:11:55;;;;;;;;;;;;;;;;;;5072666;28;1143;-77
2022/03/08 04:14:20;;;;;;;;;;;;;;;;;;5085376;28;1160;-77
2022/03/08 04:16:46;;;;;;;;;;;;;;;;;;5074656;28;1246;-77
2022/03/08 04:19:11;;;;;;;;;;;;;;;;;;5062171;28;1201;-77
2022/03/08 04:21:36;;;;;;;;;;;;;;;;;;5065904;28;1968;-77
2022/03/08 04:24:01;;;;;;;;;;;;;;;;;;5067194;28;1125;-77
2022/03/08 04:26:28;;;;;;;;;;;;;;;;;;5051407;28;1207;-77
2022/03/08 04:28:54;;;;;;;;;;;;;;;;;;5049381;28;1208;-77
2022/03/08 04:31:19;;;;;;;;;;;;;;;;;;5050547;28;1256;-78
2022/03/08 04:33:44;;;;;;;;;;;;;;;;;;5083992;28;1208;-78
2022/03/08 04:36:09;;;;;;;;;;;;;;;;;;5070425;28;1281;-78
2022/03/08 04:38:35;;;;;;;;;;;;;;;;;;5085773;28;1167;-79
2022/03/08 04:41:02;;;;;;;;;;;;;;;;;;5077942;28;1878;-78
2022/03/08 04:43:29;;;;;;;;;;;;;;;;;;5064322;28;1781;-77
2022/03/08 04:45:54;;;;;;;;;;;;;;;;;;5070494;28;1152;-77
2022/03/08 04:48:20;;;;;;;;;;;;;;;;;;5071919;28;1207;-76
2022/03/08 04:50:46;;;;;;;;;;;;;;;;;;5070938;28;1190;-76
2022/03/08 04:53:11;;;;;;;;;;;;;;;;;;5073789;28;1301;-76
2022/03/08 04:55:36;;;;;;;;;;;;;;;;;;5107808;28;1163;-76
2022/03/08 04:58:02;;;;;;;;;;;;;;;;;;5071342;28;1309;-77
2022/03/08 05:00:27;;;;;;;;;;;;;;;;;;5074409;28;1893;-76
2022/03/08 05:02:52;;;;;;;;;;;;;;;;;;5090359;28;1202;-77
2022/03/08 05:05:17;;;;;;;;;;;;;;;;;;5091132;28;1140;-76
2022/03/08 05:07:43;;;;;;;;;;;;;;;;;;5061476;28;1314;-77
2022/03/08 05:10:09;;;;;;;;;;;;;;;;;;5078099;28;1191;-76
2022/03/08 05:12:35;;;;;;;;;;;;;;;;;;5093924;28;1361;-77
2022/03/08 05:15:01;;;;;;;;;;;;;;;;;;5109825;28;1178;-77
2022/03/08 05:17:26;;;;;;;;;;;;;;;;;;5091481;28;1239;-77
2022/03/08 05:19:52;;;;;;;;;;;;;;;;;;5105099;28;1977;-77
2022/03/08 05:22:17;;;;;;;;;;;;;;;;;;5053755;28;1239;-78
2022/03/08 05:24:42;;;;;;;;;;;;;;;;;;5070596;28;1346;-77
2022/03/08 05:27:08;;;;;;;;;;;;;;;;;;5083378;28;1307;-77
2022/03/08 05:29:34;;;;;;;;;;;;;;;;;;5054497;28;1250;-77
2022/03/08 05:32:00;;;;;;;;;;;;;;;;;;5060114;28;1207;-79
2022/03/08 05:34:25;;;;;;;;;;;;;;;;;;5090690;28;1301;-76
2022/03/08 05:36:51;;;;;;;;;;;;;;;;;;5107004;28;1226;-77
2022/03/08 05:39:16;;;;;;;;;;;;;;;;;;5089721;28;1128;-77
2022/03/08 05:41:41;;;;;;;;;;;;;;;;;;5098467;28;1963;-77
2022/03/08 05:44:07;;;;;;;;;;;;;;;;;;5089041;28;1144;-77
2022/03/08 05:46:38;;;;;;;;;;;;;;;;;;5099868;28;1211;-79
2022/03/08 05:49:03;;;;;;;;;;;;;;;;;;5070590;28;1194;-79
2022/03/08 05:51:29;;;;;;;;;;;;;;;;;;5078445;28;1232;-79
2022/03/08 05:53:54;;;;;;;;;;;;;;;;;;5080525;28;1148;-78
2022/03/08 05:56:24;;;;;;;;;;;;;;;;;;5096255;28;1178;-80
2022/03/08 05:58:50;;;;;;;;;;;;;;;;;;5066831;28;1226;-78
2022/03/08 06:01:16;;;;;;;;;;;;;;;;;;5063587;28;1882;-79
2022/03/08 06:03:41;;;;;;;;;;;;;;;;;;5080282;28;1347;-79
2022/03/08 06:06:07;;;;;;;;;;;;;;;;;;5079572;28;1239;-78
2022/03/08 06:08:32;;;;;;;;;;;;;;;;;;5058582;28;1207;-79
2022/03/08 06:10:58;;;;;;;;;;;;;;;;;;5052862;28;1424;-79
2022/03/08 06:13:23;;;;;;;;;;;;;;;;;;5067392;28;1277;-79
2022/03/08 06:15:48;;;;;;;;;;;;;;;;;;5053243;28;1192;-79
2022/03/08 06:18:14;;;;;;;;;;;;;;;;;;5063785;28;1188;-78
2022/03/08 06:20:42;;;;;;;;;;;;;;;;;;5085220;28;1905;-79
2022/03/08 06:23:08;;;;;;;;;;;;;;;;;;5083954;28;1049;-80
2022/03/08 06:25:33;;;;;;;;;;;;;;;;;;5074833;28;1286;-78
2022/03/08 06:27:58;;;;;;;;;;;;;;;;;;5073796;28;1132;-80
2022/03/08 06:30:24;;;;;;;;;;;;;;;;;;5078047;28;1215;-81
2022/03/08 06:32:49;;;;;;;;;;;;;;;;;;5066386;28;1271;-79
2022/03/08 06:35:14;;;;;;;;;;;;;;;;;;5061066;28;1187;-79
2022/03/08 06:37:42;;;;;;;;;;;;;;;;;;5069205;28;1187;-79
2022/03/08 06:40:08;;;;;;;;;;;;;;;;;;5086749;28;1926;-79
2022/03/08 06:42:34;;;;;;;;;;;;;;;;;;5077520;28;1183;-80
2022/03/08 06:44:59;;;;;;;;;;;;;;;;;;5068995;28;1033;-78
2022/03/08 06:47:25;;;;;;;;;;;;;;;;;;5069358;28;1314;-79
2022/03/08 06:49:53;;;;;;;;;;;;;;;;;;5088287;28;1179;-81
2022/03/08 06:52:18;;;;;;;;;;;;;;;;;;5088941;28;1234;-79
2022/03/08 06:54:43;;;;;;;;;;;;;;;;;;5092640;28;1207;-79
2022/03/08 06:57:09;;;;;;;;;;;;;;;;;;5072194;28;1194;-78
2022/03/08 06:59:34;;;;;;;;;;;;;;;;;;5069534;28;1897;-79
2022/03/08 07:01:59;;;;;;;;;;;;;;;;;;5055620;28;1205;-80
2022/03/08 07:04:25;;;;;;;;;;;;;;;;;;5069513;28;1287;-78
2022/03/08 07:06:51;;;;;;;;;;;;;;;;;;5050992;28;1395;-80
2022/03/08 07:09:16;;;;;;;;;;;;;;;;;;5068396;28;1165;-79
2022/03/08 07:11:43;;;;;;;;;;;;;;;;;;5083750;28;1144;-79
2022/03/08 07:14:08;;;;;;;;;;;;;;;;;;5086419;28;1244;-81
2022/03/08 07:16:34;;;;;;;;;;;;;;;;;;5070580;28;1303;-78
2022/03/08 07:18:59;;;;;;;;;;;;;;;;;;5087659;28;1084;-80
2022/03/08 07:21:24;;;;;;;;;;;;;;;;;;5087148;28;1910;-79
2022/03/08 07:23:50;;;;;;;;;;;;;;;;;;5084160;28;1312;-78
2022/03/08 07:26:45;;;;;;;;;;;;;;;;;;5064999;28;1343;-79
2022/03/08 07:29:11;;;;;;;;;;;;;;;;;;5070465;28;1230;-80
2022/03/08 07:31:36;;;;;;;;;;;;;;;;;;5085280;28;1179;-79
2022/03/08 07:34:01;;;;;;;;;;;;;;;;;;5064390;28;1278;-80
2022/03/08 07:36:27;;;;;;;;;;;;;;;;;;5078493;28;1267;-80
2022/03/08 07:38:52;;;;;;;;;;;;;;;;;;5071534;28;1191;-80
2022/03/08 07:41:22;;;;;;;;;;;;;;;;;;5069266;28;1947;-81
2022/03/08 07:43:47;;;;;;;;;;;;;;;;;;5064296;28;1161;-80
2022/03/08 07:46:14;;;;;;;;;;;;;;;;;;5088803;28;1073;-80
2022/03/08 07:48:39;;;;;;;;;;;;;;;;;;5076503;28;1349;-80
2022/03/08 07:51:05;;;;;;;;;;;;;;;;;;5056420;28;1309;-80
2022/03/08 07:53:30;;;;;;;;;;;;;;;;;;5070404;28;1379;-80
2022/03/08 07:55:55;;;;;;;;;;;;;;;;;;5068380;28;1290;-82
2022/03/08 07:58:21;;;;;;;;;;;;;;;;;;5064839;28;1146;-79
2022/03/08 08:00:49;;;;;;;;;;;;;;;;;;5085600;28;1885;-80
2022/03/08 08:03:15;;;;;;;;;;;;;;;;;;5064879;28;1159;-79
2022/03/08 08:05:40;;;;;;;;;;;;;;;;;;5073473;28;1207;-80
2022/03/08 08:08:06;;;;;;;;;;;;;;;;;;5082003;28;1318;-80
2022/03/08 08:10:32;;;;;;;;;;;;;;;;;;5107053;28;1207;-80
2022/03/08 08:12:57;;;;;;;;;;;;;;;;;;5085352;28;1323;-79
2022/03/08 08:15:23;;;;;;;;;;;;;;;;;;5104931;28;1143;-79
2022/03/08 08:17:52;;;;;;;;;;;;;;;;;;5106421;28;1171;-80
2022/03/08 08:20:18;;;;;;;;;;;;;;;;;;5087637;28;1910;-80
2022/03/08 08:22:43;;;;;;;;;;;;;;;;;;5068620;28;1260;-81
2022/03/08 08:25:09;;;;;;;;;;;;;;;;;;5070501;28;1140;-81
2022/03/08 08:27:34;;;;;;;;;;;;;;;;;;5101743;28;1084;-79
2022/03/08 08:29:59;;;;;;;;;;;;;;;;;;5070378;28;1208;-78
2022/03/08 08:32:25;;;;;;;;;;;;;;;;;;5089293;28;1168;-79
2022/03/08 08:34:51;;;;;;;;;;;;;;;;;;5083911;28;1344;-79
2022/03/08 08:37:17;;;;;;;;;;;;;;;;;;5070102;28;1113;-79
2022/03/08 08:39:42;;;;;;;;;;;;;;;;;;5089233;28;1957;-79
2022/03/08 08:42:07;;;;;;;;;;;;;;;;;;5060507;28;1339;-80
2022/03/08 08:44:33;;;;;;;;;;;;;;;;;;5081877;28;1420;-80
2022/03/08 08:46:58;;;;;;;;;;;;;;;;;;5086895;28;1178;-80
2022/03/08 08:49:25;;;;;;;;;;;;;;;;;;5055507;28;1496;-80
2022/03/08 08:51:52;;;;;;;;;;;;;;;;;;5053980;28;1172;-81
2022/03/08 08:54:17;;;;;;;;;;;;;;;;;;5067455;28;1373;-81
2022/03/08 08:56:43;;;;;;;;;;;;;;;;;;5057557;28;1213;-75
2022/03/08 08:59:08;;;;;;;;;;;;;;;;;;5098950;28;1175;-78
2022/03/08 09:01:34;;;;;;;;;;;;;;;;;;5085300;28;1882;-80
2022/03/08 09:03:59;;;;;;;;;;;;;;;;;;5054050;28;1198;-80
2022/03/08 09:06:25;;;;;;;;;;;;;;;;;;5083613;28;1155;-82
2022/03/08 09:09:00;;;;;;;;;;;;;;;;;;5069401;28;1356;-82
2022/03/08 09:11:26;;;;;;;;;;;;;;;;;;5087397;28;1293;-81
2022/03/08 09:13:52;;;;;;;;;;;;;;;;;;5071866;28;1210;-84
2022/03/08 09:16:17;;;;;;;;;;;;;;;;;;5067812;28;1231;-81
2022/03/08 09:18:43;;;;;;;;;;;;;;;;;;5079887;28;1431;-82
2022/03/08 09:21:10;;;;;;;;;;;;;;;;;;5065075;28;1914;-82
2022/03/08 09:23:36;;;;;;;;;;;;;;;;;;5076074;28;1009;-80
2022/03/08 09:26:01;;;;;;;;;;;;;;;;;;5046660;28;1447;-80
2022/03/08 09:28:26;;;;;;;;;;;;;;;;;;5066622;28;1202;-82
2022/03/08 09:30:55;;;;;;;;;;;;;;;;;;5067216;28;1327;-86
2022/03/08 09:33:21;;;;;;;;;;;;;;;;;;5086351;28;1403;-82
2022/03/08 09:35:46;;;;;;;;;;;;;;;;;;5058887;28;1172;-82
2022/03/08 09:38:13;;;;;;;;;;;;;;;;;;5071142;28;1199;-81
2022/03/08 09:40:38;;;;;;;;;;;;;;;;;;5069013;28;1895;-81
2022/03/08 09:43:04;;;;;;;;;;;;;;;;;;5070537;28;1182;-82
2022/03/08 09:45:29;;;;;;;;;;;;;;;;;;5074716;28;1140;-82
2022/03/08 09:47:58;;;;;;;;;;;;;;;;;;5086648;28;1195;-83
2022/03/08 09:50:23;;;;;;;;;;;;;;;;;;5089732;28;1225;-81
2022/03/08 09:52:48;;;;;;;;;;;;;;;;;;5087571;28;1200;-81
2022/03/08 09:55:15;;;;;;;;;;;;;;;;;;5087136;28;1096;-81
2022/03/08 09:57:41;;;;;;;;;;;;;;;;;;5075462;28;1028;-82
2022/03/08 10:00:08;;;;;;;;;;;;;;;;;;5068556;28;1947;-83
2022/03/08 10:02:45;;;;;;;;;;;;;;;;;;5049888;28;1204;-81
2022/03/08 10:05:10;;;;;;;;;;;;;;;;;;5076515;28;1193;-83
2022/03/08 10:07:36;;;;;;;;;;;;;;;;;;5069684;28;1206;-81
2022/03/08 10:10:01;;;;;;;;;;;;;;;;;;5087498;28;1159;-80
2022/03/08 10:12:27;;;;;;;;;;;;;;;;;;5067188;28;1320;-81
2022/03/08 10:14:52;;;;;;;;;;;;;;;;;;5108865;28;1159;-82
2022/03/08 10:17:38;;;;;;;;;;;;;;;;;;5084677;28;1290;-81
2022/03/08 10:20:05;;;;;;;;;;;;;;;;;;5100024;28;1906;-79
2022/03/08 10:22:32;;;;;;;;;;;;;;;;;;5069788;28;1273;-79
2022/03/08 10:25:13;;;;;;;;;;;;;;;;;;5069492;28;1247;-79
2022/03/08 10:27:41;;;;;;;;;;;;;;;;;;5084141;28;1173;-81
2022/03/08 10:30:12;;;;;;;;;;;;;;;;;;5089241;28;1296;-80
2022/03/08 10:32:37;;;;;;;;;;;;;;;;;;5090264;28;1219;-83
2022/03/08 10:35:06;;;;;;;;;;;;;;;;;;5066630;28;1286;-81
2022/03/08 10:37:36;;;;;;;;;;;;;;;;;;5063589;28;1416;-79
2022/03/08 10:40:09;;;;;;;;;;;;;;;;;;5100874;28;1918;-82
2022/03/08 10:42:38;;;;;;;;;;;;;;;;;;5081035;28;1211;-82
2022/03/08 10:45:07;;;;;;;;;;;;;;;;;;5103464;28;1199;-81
2022/03/08 10:47:42;;;;;;;;;;;;;;;;;;5082109;28;1294;-80
2022/03/08 10:50:09;;;;;;;;;;;;;;;;;;5084238;28;1092;-81
2022/03/08 10:52:36;;;;;;;;;;;;;;;;;;5090122;28;1335;-81
2022/03/08 10:55:17;;;;;;;;;;;;;;;;;;5087495;28;1120;-82
2022/03/08 10:57:44;;;;;;;;;;;;;;;;;;5096037;27;1076;-81
2022/03/08 11:00:14;;;;;;;;;;;;;;;;;;5083832;28;1890;-80
2022/03/08 11:02:54;;;;;;;;;;;;;;;;;;5058647;28;1286;-80
2022/03/08 11:05:20;;;;;;;;;;;;;;;;;;5071269;28;1444;-80
2022/03/08 11:07:47;;;;;;;;;;;;;;;;;;5060665;28;1216;-81
2022/03/08 11:10:12;;;;;;;;;;;;;;;;;;5087189;28;1348;-81
2022/03/08 11:12:39;;;;;;;;;;;;;;;;;;5064435;28;1250;-82
2022/03/08 11:15:06;;;;;;;;;;;;;;;;;;5101451;28;1128;-81
2022/03/08 11:17:33;;;;;;;;;;;;;;;;;;5082250;28;1189;-80
2022/03/08 11:19:58;;;;;;;;;;;;;;;;;;5081039;28;1973;-80
2022/03/08 11:22:27;;;;;;;;;;;;;;;;;;5078701;28;1265;-81
2022/03/08 11:24:53;;;;;;;;;;;;;;;;;;5068286;28;1463;-83
2022/03/08 11:27:19;;;;;;;;;;;;;;;;;;5049096;28;1420;-81
2022/03/08 11:29:44;;;;;;;;;;;;;;;;;;5057665;28;1617;-80
2022/03/08 11:32:14;;;;;;;;;;;;;;;;;;5086629;28;1272;-83
2022/03/08 11:34:54;;;;;;;;;;;;;;;;;;5070860;28;1286;-81
2022/03/08 11:37:21;;;;;;;;;;;;;;;;;;5074994;28;1274;-82
2022/03/08 11:40:08;;;;;;;;;;;;;;;;;;5088170;28;1891;-80
2022/03/08 11:42:36;;;;;;;;;;;;;;;;;;5083236;28;1307;-80
2022/03/08 11:45:24;;;;;;;;;;;;;;;;;;5061858;28;1271;-80
2022/03/08 11:47:54;;;;;;;;;;;;;;;;;;5067581;28;1163;-81
2022/03/08 11:50:27;;;;;;;;;;;;;;;;;;5100205;28;1195;-81
2022/03/08 11:53:10;;;;;;;;;;;;;;;;;;5079864;28;1360;-82
2022/03/08 11:55:47;;;;;;;;;;;;;;;;;;5073287;28;1196;-80
2022/03/08 11:58:18;;;;;;;;;;;;;;;;;;5063078;28;1285;-82
2022/03/08 12:00:49;;;;;;;;;;;;;;;;;;5079431;28;1906;-81
2022/03/08 12:03:18;;;;;;;;;;;;;;;;;;5079936;28;1220;-80
2022/03/08 12:05:47;;;;;;;;;;;;;;;;;;5085633;28;1206;-81
2022/03/08 12:08:25;;;;;;;;;;;;;;;;;;5065421;28;1175;-80
2022/03/08 12:10:57;;;;;;;;;;;;;;;;;;5091385;28;1215;-79
2022/03/08 12:13:26;;;;;;;;;;;;;;;;;;5083540;28;948;-79
2022/03/08 12:16:09;;;;;;;;;;;;;;;;;;5067353;28;1266;-78
2022/03/08 12:18:54;;;;;;;;;;;;;;;;;;5085129;28;1178;-78
2022/03/08 12:21:28;;;;;;;;;;;;;;;;;;5083067;28;1917;-77
2022/03/08 12:23:53;;;;;;;;;;;;;;;;;;5086628;28;1227;-82
2022/03/08 12:26:28;;;;;;;;;;;;;;;;;;5069899;28;1235;-78
2022/03/08 12:29:11;;;;;;;;;;;;;;;;;;5071831;28;1213;-79
2022/03/08 12:31:56;;;;;;;;;;;;;;;;;;5096383;28;1167;-81
2022/03/08 12:34:38;;;;;;;;;;;;;;;;;;5080521;28;1327;-78
2022/03/08 12:37:11;;;;;;;;;;;;;;;;;;5086344;28;1400;-83
2022/03/08 12:39:42;;;;;;;;;;;;;;;;;;5086890;28;1939;-82
2022/03/08 12:42:16;;;;;;;;;;;;;;;;;;5077571;28;1255;-81
2022/03/08 12:44:49;;;;;;;;;;;;;;;;;;5105483;28;1321;-81
2022/03/08 12:47:15;;;;;;;;;;;;;;;;;;5082469;28;1341;-79
2022/03/08 12:49:42;;;;;;;;;;;;;;;;;;5087425;28;1286;-77
2022/03/08 12:52:12;;;;;;;;;;;;;;;;;;5083391;28;1028;-79
2022/03/08 12:54:38;;;;;;;;;;;;;;;;;;5050374;28;1218;-79
2022/03/08 12:57:04;;;;;;;;;;;;;;;;;;5077109;28;1167;-79
2022/03/08 12:59:29;;;;;;;;;;;;;;;;;;5065544;28;1238;-81
2022/03/08 13:02:06;;;;;;;;;;;;;;;;;;5064312;28;1894;-79
2022/03/08 13:04:31;;;;;;;;;;;;;;;;;;5066245;28;1267;-81
2022/03/08 13:07:14;;;;;;;;;;;;;;;;;;5062023;28;1694;-79
2022/03/08 13:09:58;;;;;;;;;;;;;;;;;;5048611;28;1234;-80
2022/03/08 13:12:28;;;;;;;;;;;;;;;;;;5054666;28;1226;-78
2022/03/08 13:15:05;;;;;;;;;;;;;;;;;;5074808;28;1160;-80
2022/03/08 13:17:31;;;;;;;;;;;;;;;;;;5066381;28;1084;-81
2022/03/08 13:19:56;;;;;;;;;;;;;;;;;;5073229;28;1954;-79
2022/03/08 13:22:21;;;;;;;;;;;;;;;;;;5078105;28;1168;-81
2022/03/08 13:25:06;;;;;;;;;;;;;;;;;;5069702;28;1263;-82
2022/03/08 13:27:47;;;;;;;;;;;;;;;;;;5058199;28;1156;-79
2022/03/08 13:30:39;;;;;;;;;;;;;;;;;;5071344;28;1203;-84
2022/03/08 13:33:31;;;;;;;;;;;;;;;;;;5065456;28;1298;-79
2022/03/08 13:36:01;;;;;;;;;;;;;;;;;;5086853;28;1216;-80
2022/03/08 13:38:39;;;;;;;;;;;;;;;;;;5080022;28;1129;-79
2022/03/08 13:41:05;;;;;;;;;;;;;;;;;;5079980;28;1890;-79
2022/03/08 13:43:31;;;;;;;;;;;;;;;;;;5081988;28;1120;-79
2022/03/08 13:46:01;;;;;;;;;;;;;;;;;;5081575;28;1231;-80
2022/03/08 13:48:30;;;;;;;;;;;;;;;;;;5074387;28;1218;-80
2022/03/08 13:51:00;;;;;;;;;;;;;;;;;;5067774;28;1290;-80
2022/03/08 13:53:25;;;;;;;;;;;;;;;;;;5082308;28;1355;-81
2022/03/08 13:55:57;;;;;;;;;;;;;;;;;;5087136;28;1017;-81
2022/03/08 13:58:23;;;;;;;;;;;;;;;;;;5062923;28;1365;-81
2022/03/08 14:00:49;;;;;;;;;;;;;;;;;;5067319;28;1890;-80
2022/03/08 14:03:17;;;;;;;;;;;;;;;;;;5049385;28;1319;-80
2022/03/08 14:05:59;;;;;;;;;;;;;;;;;;5070841;28;1256;-81
2022/03/08 14:08:35;;;;;;;;;;;;;;;;;;5082583;28;1162;-79
2022/03/08 14:11:03;;;;;;;;;;;;;;;;;;5084748;28;1259;-83
2022/03/08 14:13:29;;;;;;;;;;;;;;;;;;5073642;28;1299;-82
2022/03/08 14:16:12;;;;;;;;;;;;;;;;;;5074771;28;1315;-81
2022/03/08 14:18:54;;;;;;;;;;;;;;;;;;5065085;28;1206;-82
2022/03/08 14:21:23;;;;;;;;;;;;;;;;;;5067587;28;1948;-80
2022/03/08 14:23:49;;;;;;;;;;;;;;;;;;5066819;28;1247;-82
2022/03/08 14:26:16;;;;;;;;;;;;;;;;;;5063889;28;1369;-80
2022/03/08 14:28:49;;;;;;;;;;;;;;;;;;5078927;28;1404;-82
2022/03/08 14:31:24;;;;;;;;;;;;;;;;;;5084555;28;1380;-80
2022/03/08 14:33:50;;;;;;;;;;;;;;;;;;5087860;28;1148;-83
2022/03/08 14:36:54;;;;;;;;;;;;;;;;;;5086184;28;1441;-78
2022/03/08 14:39:30;;;;;;;;;;;;;;;;;;5062873;28;1253;-76
2022/03/08 14:42:07;;;;;;;;;;;;;;;;;;5049125;28;1936;-80
2022/03/08 14:44:34;;;;;;;;;;;;;;;;;;5042526;28;1175;-78
2022/03/08 14:47:00;;;;;;;;;;;;;;;;;;5063885;28;1290;-79
2022/03/08 14:49:26;;;;;;;;;;;;;;;;;;5077076;28;1190;-79
2022/03/08 14:51:51;;;;;;;;;;;;;;;;;;5069905;28;1177;-81
2022/03/08 14:54:26;;;;;;;;;;;;;;;;;;5075667;28;1164;-80
2022/03/08 14:56:52;;;;;;;;;;;;;;;;;;5074167;28;1163;-82
2022/03/08 14:59:23;;;;;;;;;;;;;;;;;;5072571;28;1191;-82
2022/03/08 15:01:49;;;;;;;;;;;;;;;;;;5081283;28;1894;-80
2022/03/08 15:04:14;;;;;;;;;;;;;;;;;;5067510;28;1280;-79
2022/03/08 15:06:40;;;;;;;;;;;;;;;;;;5095705;28;1227;-80
2022/03/08 15:09:06;;;;;;;;;;;;;;;;;;5088112;28;1237;-78
2022/03/08 15:11:32;;;;;;;;;;;;;;;;;;5085656;28;1301;-82
2022/03/08 15:13:57;;;;;;;;;;;;;;;;;;5104796;28;1160;-82
2022/03/08 15:16:24;;;;;;;;;;;;;;;;;;5066939;28;1231;-81
2022/03/08 15:18:50;;;;;;;;;;;;;;;;;;5051645;28;1172;-80
2022/03/08 15:21:20;;;;;;;;;;;;;;;;;;5052338;28;1997;-80
2022/03/08 15:23:46;;;;;;;;;;;;;;;;;;5070093;28;1234;-80
2022/03/08 15:26:11;;;;;;;;;;;;;;;;;;5091378;28;1621;-80
2022/03/08 15:28:36;;;;;;;;;;;;;;;;;;5100923;28;1218;-83
2022/03/08 15:31:02;;;;;;;;;;;;;;;;;;5068212;28;1271;-82
2022/03/08 15:33:27;;;;;;;;;;;;;;;;;;5076248;28;1191;-81
2022/03/08 15:35:53;;;;;;;;;;;;;;;;;;5088345;28;1396;-82
2022/03/08 15:38:18;;;;;;;;;;;;;;;;;;5086844;28;1260;-81
2022/03/08 15:40:44;;;;;;;;;;;;;;;;;;5085998;28;1902;-81
2022/03/08 15:43:09;;;;;;;;;;;;;;;;;;5104173;28;1191;-81
2022/03/08 15:45:34;;;;;;;;;;;;;;;;;;5086661;28;1274;-81
2022/03/08 15:47:59;;;;;;;;;;;;;;;;;;5069306;28;1188;-80
2022/03/08 15:50:28;;;;;;;;;;;;;;;;;;5105319;28;1167;-82
2022/03/08 15:52:53;;;;;;;;;;;;;;;;;;5060374;28;1337;-82
2022/03/08 15:55:19;;;;;;;;;;;;;;;;;;5067377;28;1211;-81
2022/03/08 15:57:44;;;;;;;;;;;;;;;;;;5064838;28;1160;-84
2022/03/08 16:00:10;;;;;;;;;;;;;;;;;;5048801;28;1956;-82
2022/03/08 16:02:36;;;;;;;;;;;;;;;;;;5082978;28;1187;-82
2022/03/08 16:05:01;;;;;;;;;;;;;;;;;;5079755;28;1257;-82
2022/03/08 16:07:30;;;;;;;;;;;;;;;;;;5084402;28;1546;-84
2022/03/08 16:09:55;;;;;;;;;;;;;;;;;;5078230;28;1324;-77
2022/03/08 16:12:20;;;;;;;;;;;;;;;;;;5103699;28;1159;-76
2022/03/08 16:14:49;;;;;;;;;;;;;;;;;;5082979;28;1347;-78
2022/03/08 16:17:14;;;;;;;;;;;;;;;;;;5070579;28;1250;-77
2022/03/08 16:19:39;;;;;;;;;;;;;;;;;;5103566;28;1083;-77
2022/03/08 16:22:04;;;;;;;;;;;;;;;;;;5086355;28;1914;-77
2022/03/08 16:24:30;;;;;;;;;;;;;;;;;;5085137;28;1207;-78
2022/03/08 16:26:55;;;;;;;;;;;;;;;;;;5085412;28;1305;-78
2022/03/08 16:29:20;;;;;;;;;;;;;;;;;;5067043;28;1207;-77
2022/03/08 16:31:46;;;;;;;;;;;;;;;;;;5065694;28;1084;-77
2022/03/08 16:34:11;;;;;;;;;;;;;;;;;;5069611;28;1274;-78
2022/03/08 16:36:37;;;;;;;;;;;;;;;;;;5084703;28;1229;-78
2022/03/08 16:39:02;;;;;;;;;;;;;;;;;;5071188;28;1215;-77
2022/03/08 16:41:33;;;;;;;;;;;;;;;;;;5102945;28;1972;-76
2022/03/08 16:43:58;;;;;;;;;;;;;;;;;;5103155;28;1214;-78
2022/03/08 16:46:24;;;;;;;;;;;;;;;;;;5084988;28;1295;-77
2022/03/08 16:48:49;;;;;;;;;;;;;;;;;;5065446;28;1298;-72
2022/03/08 16:51:17;;;;;;;;;;;;;;;;;;5061865;28;1298;-72
2022/03/08 16:53:43;;;;;;;;;;;;;;;;;;5078396;28;1422;-73
2022/03/08 16:56:08;;;;;;;;;;;;;;;;;;5098368;28;1159;-72
2022/03/08 16:58:34;;;;;;;;;;;;;;;;;;5093053;28;1310;-72
2022/03/08 17:00:59;;;;;;;;;;;;;;;;;;5063300;28;1898;-72
2022/03/08 17:03:24;;;;;;;;;;;;;;;;;;5042402;28;1343;-71
2022/03/08 17:05:49;;;;;;;;;;;;;;;;;;5076903;28;1324;-72